Time;durP1;ratioP1;P1;durP2;ratioP2;P2;SDS_P1;SDS_P2;PMS_P1;PMS_P2;Temp;Humidity;BMP_temperature;BMP_pressure;BME280_temperature;BME280_humidity;BME280_pressure;Samples;Min_cycle;Max_cycle;Signal;HPM_P1;HPM_P2
2023/10/14 00:00:46;;;;;;;10.85;2.55;;;9.80;99.90;;;;;;5096659;28;20036;-55
2023/10/14 00:06:08;;;;;;;11.48;2.28;;;9.80;99.90;;;;;;5096734;28;20211;-53
2023/10/14 00:08:35;;;;;;;12.50;2.40;;;9.70;99.90;;;;;;5096820;28;20044;-52
2023/10/14 00:11:01;;;;;;;9.25;2.63;;;9.70;99.90;;;;;;5095985;28;20043;-54
2023/10/14 00:13:31;;;;;;;14.13;2.72;;;9.70;99.90;;;;;;5096452;28;20044;-53
2023/10/14 00:16:01;;;;;;;10.73;2.70;;;9.60;99.90;;;;;;5096175;28;20391;-52
2023/10/14 00:18:28;;;;;;;9.43;2.13;;;9.60;99.90;;;;;;5095999;28;20052;-55
2023/10/14 00:20:55;;;;;;;16.10;2.88;;;9.60;99.90;;;;;;5096124;28;20038;-55
2023/10/14 00:23:24;;;;;;;12.25;2.35;;;9.60;99.90;;;;;;5095888;28;20047;-55
2023/10/14 00:25:51;;;;;;;8.15;2.28;;;9.60;99.90;;;;;;5095948;28;20386;-52
2023/10/14 00:28:19;;;;;;;11.40;2.67;;;9.60;99.90;;;;;;5096200;28;20086;-54
2023/10/14 00:30:46;;;;;;;10.50;2.70;;;9.60;99.90;;;;;;5096008;28;20652;-54
2023/10/14 00:33:13;;;;;;;9.63;3.15;;;9.50;99.90;;;;;;5094464;28;20134;-54
2023/10/14 00:35:42;;;;;;;12.15;2.40;;;9.50;99.90;;;;;;5096234;28;20036;-52
2023/10/14 00:38:13;;;;;;;12.27;2.50;;;9.50;99.90;;;;;;5095842;28;20043;-54
2023/10/14 00:40:44;;;;;;;15.25;2.63;;;9.50;99.90;;;;;;5095833;28;20040;-54
2023/10/14 00:43:11;;;;;;;11.40;2.88;;;9.40;99.90;;;;;;5096055;28;20036;-54
2023/10/14 00:45:43;;;;;;;8.98;2.38;;;9.40;99.90;;;;;;5095639;28;20081;-54
2023/10/14 00:48:13;;;;;;;14.77;2.47;;;9.40;99.90;;;;;;5095211;28;20048;-54
2023/10/14 00:50:41;;;;;;;12.50;2.50;;;9.40;99.90;;;;;;5093975;28;20558;-50
2023/10/14 00:53:08;;;;;;;13.68;2.33;;;9.30;99.90;;;;;;5093973;28;20051;-57
2023/10/14 00:55:45;;;;;;;11.65;2.75;;;9.30;99.90;;;;;;5095105;28;20079;-54
2023/10/14 00:58:12;;;;;;;14.75;2.63;;;9.30;99.90;;;;;;5095230;28;20101;-53
2023/10/14 01:00:56;;;;;;;12.57;2.55;;;9.30;99.90;;;;;;5095317;28;20416;-54
2023/10/14 01:03:24;;;;;;;10.75;2.35;;;9.30;99.90;;;;;;5093971;28;20093;-57
2023/10/14 01:05:51;;;;;;;15.70;2.88;;;9.30;99.90;;;;;;5093977;28;20070;-52
2023/10/14 01:08:21;;;;;;;9.45;2.30;;;9.30;99.90;;;;;;5094003;28;20064;-52
2023/10/14 01:10:49;;;;;;;9.20;2.08;;;9.30;99.90;;;;;;5095532;28;20040;-56
2023/10/14 01:13:22;;;;;;;15.88;4.28;;;9.30;99.90;;;;;;5095543;28;20048;-54
2023/10/14 01:15:57;;;;;;;12.30;2.40;;;9.30;99.90;;;;;;5093844;28;20134;-56
2023/10/14 01:18:24;;;;;;;15.35;2.50;;;9.30;99.90;;;;;;5095204;28;20078;-57
2023/10/14 01:20:50;;;;;;;14.13;2.58;;;9.20;99.90;;;;;;5094924;28;20035;-54
2023/10/14 01:23:17;;;;;;;17.95;2.67;;;9.20;99.90;;;;;;5094731;28;20040;-54
2023/10/14 01:25:47;;;;;;;12.07;2.35;;;9.20;99.90;;;;;;5094728;28;20040;-57
2023/10/14 01:28:15;;;;;;;15.77;2.35;;;9.20;99.90;;;;;;5093218;28;20051;-53
2023/10/14 01:30:43;;;;;;;14.30;2.38;;;9.20;99.90;;;;;;5093362;28;20063;-50
2023/10/14 01:33:15;;;;;;;9.30;2.10;;;9.20;99.90;;;;;;5093893;28;20059;-55
2023/10/14 01:35:51;;;;;;;12.82;2.35;;;9.20;99.90;;;;;;5093405;28;20089;-54
2023/10/14 01:38:18;;;;;;;13.50;2.33;;;9.20;99.90;;;;;;5093379;28;20097;-56
2023/10/14 01:40:54;;;;;;;15.02;2.80;;;9.10;99.90;;;;;;5093240;28;20085;-56
2023/10/14 01:43:24;;;;;;;8.07;2.00;;;9.10;99.90;;;;;;5094788;28;20123;-57
2023/10/14 01:48:22;;;;;;;14.88;2.42;;;9.10;99.90;;;;;;5094434;28;20115;-55
2023/10/14 01:50:54;;;;;;;11.90;2.33;;;9.10;99.90;;;;;;5094377;28;20457;-52
2023/10/14 01:53:23;;;;;;;12.25;2.40;;;9.10;99.90;;;;;;5092871;28;20469;-55
2023/10/14 01:55:50;;;;;;;9.65;2.15;;;9.10;99.90;;;;;;5092953;28;20399;-50
2023/10/14 01:58:23;;;;;;;13.52;2.63;;;9.10;99.90;;;;;;5092746;28;20457;-57
2023/10/14 02:01:24;;;;;;;10.38;2.28;;;9.10;99.90;;;;;;5092825;28;20097;-53
2023/10/14 02:03:46;;;;;;;9.00;2.40;;;9.10;99.90;;;;;;5091636;28;20063;-54
2023/10/14 02:06:30;;;;;;;10.27;2.10;;;9.10;99.90;;;;;;5094043;28;20040;-55
2023/10/14 02:09:00;;;;;;;10.27;2.63;;;9.10;99.90;;;;;;5093805;28;20032;-48
2023/10/14 02:11:33;;;;;;;21.38;2.55;;;9.10;99.90;;;;;;5093872;28;20082;-57
2023/10/14 02:14:06;;;;;;;10.85;2.40;;;9.10;99.90;;;;;;5094058;28;20115;-52
2023/10/14 02:16:46;;;;;;;12.93;2.42;;;9.00;99.90;;;;;;5093975;28;20055;-58
2023/10/14 02:22:03;;;;;;;13.32;1.90;;;9.00;99.90;;;;;;5094339;28;20044;-56
2023/10/14 02:24:30;;;;;;;9.65;2.20;;;8.90;99.90;;;;;;5092739;28;20489;-58
2023/10/14 02:26:57;;;;;;;12.23;2.42;;;8.90;99.90;;;;;;5093759;28;20165;-57
2023/10/14 02:29:24;;;;;;;16.85;2.53;;;8.90;99.90;;;;;;5094092;28;20417;-59
2023/10/14 02:31:51;;;;;;;9.98;2.00;;;8.90;99.90;;;;;;5093541;28;20028;-58
2023/10/14 02:34:18;;;;;;;13.60;2.35;;;8.80;99.90;;;;;;5093674;28;20130;-55
2023/10/14 02:36:48;;;;;;;8.70;2.38;;;8.80;99.90;;;;;;5092514;28;20036;-53
2023/10/14 02:39:16;;;;;;;12.90;2.55;;;8.80;99.90;;;;;;5093508;28;20066;-57
2023/10/14 02:41:44;;;;;;;9.63;2.25;;;8.80;99.90;;;;;;5092524;28;20479;-58
2023/10/14 02:46:46;;;;;;;13.77;2.75;;;8.70;99.90;;;;;;5092338;28;20548;-56
2023/10/14 02:49:13;;;;;;;11.73;2.13;;;8.70;99.90;;;;;;5093884;28;20043;-55
2023/10/14 02:51:44;;;;;;;12.90;2.10;;;8.60;99.90;;;;;;5093564;28;20127;-55
2023/10/14 02:54:26;;;;;;;9.25;2.45;;;8.70;99.90;;;;;;5093644;28;20033;-58
2023/10/14 02:59:21;;;;;;;9.23;2.08;;;8.60;99.90;;;;;;5091832;28;20089;-57
2023/10/14 03:02:09;;;;;;;10.48;2.47;;;8.60;99.90;;;;;;5092429;28;20127;-56
2023/10/14 03:04:42;;;;;;;10.77;2.35;;;8.70;99.90;;;;;;5093288;28;20040;-51
2023/10/14 03:07:09;;;;;;;13.15;2.08;;;8.60;99.90;;;;;;5092191;28;20052;-58
2023/10/14 03:09:36;;;;;;;12.18;2.13;;;8.60;99.90;;;;;;5093257;28;20132;-54
2023/10/14 03:12:04;;;;;;;11.60;2.25;;;8.60;99.90;;;;;;5095234;28;20036;-54
2023/10/14 03:14:31;;;;;;;8.80;2.30;;;8.60;99.90;;;;;;5097239;28;20040;-53
2023/10/14 03:16:57;;;;;;;12.15;1.83;;;8.50;99.90;;;;;;5097533;28;20085;-53
2023/10/14 03:19:25;;;;;;;9.32;1.90;;;8.60;99.90;;;;;;5097546;28;20111;-53
2023/10/14 03:22:01;;;;;;;7.95;1.75;;;8.50;99.90;;;;;;5095919;28;20072;-57
2023/10/14 03:24:32;;;;;;;12.07;2.95;;;8.50;99.90;;;;;;5096225;28;20536;-49
2023/10/14 03:27:02;;;;;;;8.68;2.15;;;8.50;99.90;;;;;;5096999;28;20517;-53
2023/10/14 03:29:29;;;;;;;14.95;2.58;;;8.50;99.90;;;;;;5097409;28;20067;-55
2023/10/14 03:31:56;;;;;;;9.68;2.03;;;8.50;99.90;;;;;;5096823;28;20063;-52
2023/10/14 03:34:29;;;;;;;9.20;1.90;;;8.50;99.90;;;;;;5096809;28;20036;-56
2023/10/14 03:37:00;;;;;;;9.43;1.88;;;8.40;99.90;;;;;;5097053;28;20119;-55
2023/10/14 03:39:46;;;;;;;14.88;2.13;;;8.40;99.90;;;;;;5096963;28;20437;-54
2023/10/14 03:42:15;;;;;;;9.50;1.77;;;8.40;99.90;;;;;;5097237;28;20337;-51
2023/10/14 03:44:41;;;;;;;12.43;2.17;;;8.40;99.90;;;;;;5097185;28;20047;-55
2023/10/14 03:47:14;;;;;;;11.70;2.65;;;8.40;99.90;;;;;;5096570;28;20040;-54
2023/10/14 03:49:41;;;;;;;16.17;2.40;;;8.40;99.90;;;;;;5096947;28;20044;-53
2023/10/14 03:52:10;;;;;;;10.93;2.10;;;8.40;99.90;;;;;;5096606;28;20068;-52
2023/10/14 03:54:43;;;;;;;12.40;3.20;;;8.40;99.90;;;;;;5096858;28;20047;-54
2023/10/14 03:57:18;;;;;;;16.02;2.20;;;8.40;99.90;;;;;;5096736;28;20032;-58
2023/10/14 03:59:46;;;;;;;11.68;2.10;;;8.40;99.90;;;;;;5096892;28;20040;-56
2023/10/14 04:02:18;;;;;;;6.97;1.80;;;8.40;99.90;;;;;;5096910;28;20437;-53
2023/10/14 04:04:45;;;;;;;12.20;2.78;;;8.40;99.90;;;;;;5096836;28;20113;-53
2023/10/14 04:09:52;;;;;;;9.38;1.80;;;8.50;99.90;;;;;;5096599;28;20384;-54
2023/10/14 04:12:52;;;;;;;8.13;2.03;;;8.50;99.90;;;;;;5096123;28;20040;-54
2023/10/14 04:16:07;;;;;;;10.15;2.15;;;8.50;99.90;;;;;;5096169;28;20040;-56
2023/10/14 04:18:12;;;;;;;11.13;2.03;;;8.40;99.90;;;;;;5085458;28;20052;-57
2023/10/14 04:20:45;;;;;;;12.75;2.28;;;8.40;99.90;;;;;;5096012;28;20115;-58
2023/10/14 04:23:26;;;;;;;8.90;1.60;;;8.40;99.90;;;;;;5095487;28;20068;-51
2023/10/14 04:26:11;;;;;;;10.05;1.67;;;8.40;99.90;;;;;;5095177;28;20076;-53
2023/10/14 04:28:53;;;;;;;12.90;2.20;;;8.40;99.90;;;;;;5095907;28;20058;-54
2023/10/14 04:31:27;;;;;;;14.43;2.10;;;8.40;99.90;;;;;;5096450;28;20067;-52
2023/10/14 04:33:54;;;;;;;11.82;2.17;;;8.30;99.90;;;;;;5096094;28;20071;-57
2023/10/14 04:36:36;;;;;;;9.07;1.95;;;8.30;99.90;;;;;;5096137;28;20039;-56
2023/10/14 04:39:14;;;;;;;13.77;2.38;;;8.30;99.90;;;;;;5095872;28;20403;-58
2023/10/14 04:41:55;;;;;;;11.55;2.40;;;8.40;99.90;;;;;;5095730;28;20040;-57
2023/10/14 04:44:23;;;;;;;8.45;1.85;;;8.30;99.90;;;;;;5096017;28;20415;-50
2023/10/14 04:47:01;;;;;;;9.75;2.08;;;8.30;99.90;;;;;;5095575;28;20089;-54
2023/10/14 04:49:37;;;;;;;10.73;2.22;;;8.30;99.90;;;;;;5096214;28;20390;-57
2023/10/14 04:52:05;;;;;;;9.07;1.85;;;8.40;99.90;;;;;;5095619;28;20071;-57
2023/10/14 04:54:34;;;;;;;7.57;1.92;;;8.30;99.90;;;;;;5095366;28;20036;-50
2023/10/14 04:57:06;;;;;;;12.82;2.17;;;8.30;99.90;;;;;;5095210;28;20080;-55
2023/10/14 04:59:36;;;;;;;8.65;1.90;;;8.30;99.90;;;;;;5095479;28;20475;-56
2023/10/14 05:02:03;;;;;;;10.23;1.88;;;8.30;99.90;;;;;;5095477;28;20091;-55
2023/10/14 05:04:30;;;;;;;13.70;2.13;;;8.30;99.90;;;;;;5095073;28;20131;-54
2023/10/14 05:07:03;;;;;;;9.63;1.73;;;8.30;99.90;;;;;;5095296;28;20043;-56
2023/10/14 05:09:31;;;;;;;10.35;2.22;;;8.30;99.90;;;;;;5095276;28;20055;-53
2023/10/14 05:11:58;;;;;;;10.40;1.83;;;8.30;99.90;;;;;;5095069;28;20040;-56
2023/10/14 05:14:36;;;;;;;8.00;2.13;;;8.30;99.90;;;;;;5095412;28;20040;-53
2023/10/14 05:17:14;;;;;;;9.27;1.73;;;8.30;99.90;;;;;;5095418;28;20044;-51
2023/10/14 05:19:41;;;;;;;9.18;1.98;;;8.30;99.90;;;;;;5095739;28;20384;-56
2023/10/14 05:22:24;;;;;;;11.48;1.90;;;8.30;99.90;;;;;;5095226;28;20483;-55
2023/10/14 05:25:03;;;;;;;10.40;2.17;;;8.30;99.90;;;;;;5095225;28;20072;-52
2023/10/14 05:27:45;;;;;;;7.53;1.73;;;8.30;99.90;;;;;;5094917;28;20093;-54
2023/10/14 05:30:15;;;;;;;10.43;1.90;;;8.30;99.90;;;;;;5094885;28;20421;-55
2023/10/14 05:32:44;;;;;;;6.13;1.90;;;8.30;99.90;;;;;;5094972;28;20122;-56
2023/10/14 05:35:11;;;;;;;10.27;2.00;;;8.20;99.90;;;;;;5093900;28;20524;-54
2023/10/14 05:37:45;;;;;;;13.50;2.42;;;8.20;99.90;;;;;;5093327;28;20040;-55
2023/10/14 05:40:15;;;;;;;15.55;2.10;;;8.20;99.90;;;;;;5095004;28;20039;-54
2023/10/14 05:42:45;;;;;;;9.95;2.20;;;8.20;99.90;;;;;;5094673;28;20501;-55
2023/10/14 05:45:12;;;;;;;11.57;1.88;;;8.20;99.90;;;;;;5094559;28;20048;-55
2023/10/14 05:47:43;;;;;;;11.65;2.75;;;8.20;99.90;;;;;;5093301;28;20388;-52
2023/10/14 05:50:14;;;;;;;8.40;1.90;;;8.20;99.90;;;;;;5094606;28;20052;-54
2023/10/14 05:52:43;;;;;;;9.35;2.00;;;8.20;99.90;;;;;;5094255;28;20041;-50
2023/10/14 05:55:10;;;;;;;8.00;1.70;;;8.20;99.90;;;;;;5094580;28;20406;-52
2023/10/14 05:57:39;;;;;;;7.47;2.15;;;8.10;99.90;;;;;;5094590;28;20040;-53
2023/10/14 06:00:20;;;;;;;7.13;1.60;;;8.20;99.90;;;;;;5094630;28;20044;-55
2023/10/14 06:02:48;;;;;;;10.65;1.90;;;8.10;99.90;;;;;;5094217;28;20054;-54
2023/10/14 06:05:16;;;;;;;10.57;1.70;;;8.10;99.90;;;;;;5092649;28;20423;-55
2023/10/14 06:07:46;;;;;;;9.00;1.95;;;8.10;99.90;;;;;;5093802;28;20105;-49
2023/10/14 06:10:13;;;;;;;12.57;2.53;;;8.10;99.90;;;;;;5094005;28;20573;-56
2023/10/14 06:12:44;;;;;;;11.15;1.90;;;8.10;99.90;;;;;;5094237;28;20126;-56
2023/10/14 06:15:11;;;;;;;13.20;2.50;;;8.10;99.90;;;;;;5094521;28;20040;-53
2023/10/14 06:17:38;;;;;;;10.50;1.73;;;8.10;99.90;;;;;;5093892;28;20040;-55
2023/10/14 06:20:05;;;;;;;12.82;3.13;;;8.10;99.90;;;;;;5094074;28;20160;-54
2023/10/14 06:22:32;;;;;;;7.82;2.40;;;8.00;99.90;;;;;;5093870;28;20040;-54
2023/10/14 06:25:00;;;;;;;10.07;2.28;;;8.00;99.90;;;;;;5092448;28;20050;-53
2023/10/14 06:27:27;;;;;;;10.93;2.60;;;8.00;99.90;;;;;;5093674;28;20044;-57
2023/10/14 06:29:55;;;;;;;9.55;2.13;;;8.00;99.90;;;;;;5094149;28;20064;-48
2023/10/14 06:32:22;;;;;;;11.77;2.33;;;8.00;99.90;;;;;;5093791;28;20497;-54
2023/10/14 06:34:57;;;;;;;12.38;1.77;;;8.00;99.90;;;;;;5093554;28;20403;-58
2023/10/14 06:37:25;;;;;;;12.93;2.20;;;8.00;99.90;;;;;;5093798;28;20036;-57
2023/10/14 06:39:54;;;;;;;10.85;2.22;;;8.00;99.90;;;;;;5094144;28;20032;-58
2023/10/14 06:42:22;;;;;;;10.35;2.80;;;8.00;99.90;;;;;;5094380;28;20417;-58
2023/10/14 06:44:49;;;;;;;12.10;2.58;;;8.00;99.90;;;;;;5093586;28;20114;-62
2023/10/14 06:47:18;;;;;;;13.18;2.60;;;8.00;99.90;;;;;;5093653;28;20040;-57
2023/10/14 06:49:45;;;;;;;12.93;2.58;;;8.00;99.90;;;;;;5093491;28;20036;-58
2023/10/14 06:52:14;;;;;;;10.88;2.20;;;8.00;99.90;;;;;;5093862;28;20111;-56
2023/10/14 06:54:41;;;;;;;12.20;2.00;;;8.00;99.90;;;;;;5094158;28;20051;-56
2023/10/14 06:57:08;;;;;;;10.23;2.08;;;8.10;99.90;;;;;;5093731;28;20426;-58
2023/10/14 06:59:38;;;;;;;8.82;2.20;;;8.10;99.90;;;;;;5094014;28;20487;-59
2023/10/14 07:02:05;;;;;;;11.40;2.63;;;8.10;99.90;;;;;;5093780;28;20068;-58
2023/10/14 07:04:37;;;;;;;16.40;2.30;;;8.10;99.90;;;;;;5093974;28;20050;-55
2023/10/14 07:07:08;;;;;;;11.95;2.25;;;8.10;99.90;;;;;;5093537;28;20479;-58
2023/10/14 07:09:37;;;;;;;9.82;1.90;;;8.20;99.90;;;;;;5093706;28;20425;-56
2023/10/14 07:12:13;;;;;;;8.32;2.03;;;8.20;99.90;;;;;;5093224;28;20044;-56
2023/10/14 07:14:44;;;;;;;14.20;2.30;;;8.20;99.90;;;;;;5093410;28;20468;-58
2023/10/14 07:17:13;;;;;;;10.35;2.20;;;8.20;99.90;;;;;;5091620;28;20043;-57
2023/10/14 07:19:40;;;;;;;8.55;2.40;;;8.30;99.90;;;;;;5093888;28;20032;-54
2023/10/14 07:22:07;;;;;;;12.93;1.95;;;8.30;99.90;;;;;;5093125;28;20044;-54
2023/10/14 07:24:38;;;;;;;8.38;2.20;;;8.40;99.90;;;;;;5093454;28;20055;-58
2023/10/14 07:27:06;;;;;;;10.27;2.08;;;8.40;99.90;;;;;;5091978;28;20048;-58
2023/10/14 07:29:33;;;;;;;11.45;2.50;;;8.40;99.90;;;;;;5093504;28;20490;-59
2023/10/14 07:32:01;;;;;;;12.52;2.20;;;8.40;99.90;;;;;;5093295;28;20247;-55
2023/10/14 07:34:28;;;;;;;9.70;2.33;;;8.50;99.90;;;;;;5093018;28;20036;-58
2023/10/14 07:36:55;;;;;;;7.60;2.17;;;8.50;99.90;;;;;;5093012;28;20036;-57
2023/10/14 07:39:28;;;;;;;9.02;1.73;;;8.50;99.90;;;;;;5093054;28;20036;-58
2023/10/14 07:41:55;;;;;;;11.55;2.17;;;8.60;99.90;;;;;;5093264;28;20067;-56
2023/10/14 07:44:25;;;;;;;12.38;2.80;;;8.70;99.90;;;;;;5093105;28;20391;-57
2023/10/14 07:46:54;;;;;;;10.57;2.15;;;8.70;99.90;;;;;;5093452;28;20049;-52
2023/10/14 07:49:21;;;;;;;13.85;2.30;;;8.70;99.90;;;;;;5093315;28;20427;-52
2023/10/14 07:51:49;;;;;;;10.65;2.08;;;8.70;99.90;;;;;;5092950;28;20135;-57
2023/10/14 07:54:16;;;;;;;13.32;2.40;;;8.80;99.90;;;;;;5092738;28;20036;-56
2023/10/14 07:56:46;;;;;;;11.70;1.88;;;8.80;99.90;;;;;;5093273;28;20515;-56
2023/10/14 07:59:14;;;;;;;14.75;3.20;;;8.90;99.90;;;;;;5096148;28;20040;-55
2023/10/14 08:01:41;;;;;;;12.68;2.20;;;8.90;99.90;;;;;;5096331;28;20044;-56
2023/10/14 08:04:14;;;;;;;10.38;1.92;;;8.90;99.90;;;;;;5096653;28;20036;-59
2023/10/14 08:06:41;;;;;;;10.27;2.67;;;9.00;99.90;;;;;;5096443;28;20071;-59
2023/10/14 08:09:23;;;;;;;9.27;1.83;;;9.10;99.90;;;;;;5096193;28;20044;-57
2023/10/14 08:11:51;;;;;;;9.85;2.03;;;9.10;99.90;;;;;;5095956;28;20075;-58
2023/10/14 08:14:18;;;;;;;12.02;2.55;;;9.10;99.90;;;;;;5096799;28;20036;-56
2023/10/14 08:16:48;;;;;;;13.30;2.60;;;9.10;99.90;;;;;;5096188;28;20448;-58
2023/10/14 08:19:16;;;;;;;9.30;2.33;;;9.20;99.90;;;;;;5096103;28;20040;-53
2023/10/14 08:21:43;;;;;;;11.32;2.35;;;9.20;99.90;;;;;;5096051;28;20032;-53
2023/10/14 08:24:14;;;;;;;9.77;2.05;;;9.20;99.90;;;;;;5096000;28;20052;-54
2023/10/14 08:26:41;;;;;;;7.88;2.00;;;9.30;99.90;;;;;;5095837;28;20040;-57
2023/10/14 08:29:12;;;;;;;17.13;3.10;;;9.30;99.90;;;;;;5095911;28;20554;-55
2023/10/14 08:31:42;;;;;;;12.95;2.08;;;9.30;99.90;;;;;;5095901;28;20534;-56
2023/10/14 08:34:10;;;;;;;12.68;2.53;;;9.30;99.90;;;;;;5095887;28;20085;-54
2023/10/14 08:36:42;;;;;;;11.40;2.30;;;9.40;99.90;;;;;;5095634;28;20429;-55
2023/10/14 08:39:10;;;;;;;8.93;2.28;;;9.40;99.90;;;;;;5094076;28;20044;-54
2023/10/14 08:41:37;;;;;;;10.25;2.17;;;9.50;99.90;;;;;;5095302;28;20040;-58
2023/10/14 08:44:08;;;;;;;11.18;2.35;;;9.50;99.90;;;;;;5095370;28;20046;-58
2023/10/14 08:46:35;;;;;;;10.43;3.00;;;9.50;99.90;;;;;;5095773;28;20131;-56
2023/10/14 08:49:03;;;;;;;16.02;2.47;;;9.50;99.90;;;;;;5095790;28;20160;-58
2023/10/14 08:51:30;;;;;;;10.10;2.30;;;9.60;99.90;;;;;;5095986;28;20056;-56
2023/10/14 08:54:19;;;;;;;11.48;2.40;;;9.60;99.90;;;;;;5095215;28;20040;-58
2023/10/14 08:56:45;;;;;;;8.73;2.08;;;9.70;99.90;;;;;;5095466;28;20040;-57
2023/10/14 08:59:12;;;;;;;10.38;1.98;;;9.70;99.90;;;;;;5095089;28;20116;-59
2023/10/14 09:01:40;;;;;;;11.88;2.25;;;9.70;99.90;;;;;;5095592;28;20036;-58
2023/10/14 09:04:09;;;;;;;10.05;2.35;;;9.70;99.90;;;;;;5095180;28;20044;-52
2023/10/14 09:06:36;;;;;;;10.40;2.00;;;9.80;99.90;;;;;;5095416;28;20047;-58
2023/10/14 09:09:03;;;;;;;12.20;2.00;;;9.80;99.90;;;;;;5093764;28;20048;-58
2023/10/14 09:11:33;;;;;;;10.15;2.28;;;9.90;99.90;;;;;;5095224;28;20105;-57
2023/10/14 09:14:00;;;;;;;9.30;2.20;;;9.90;99.90;;;;;;5094496;28;20365;-56
2023/10/14 09:16:27;;;;;;;13.25;2.35;;;10.00;99.90;;;;;;5095136;28;20032;-56
2023/10/14 09:18:54;;;;;;;12.00;2.83;;;10.00;99.90;;;;;;5094956;28;20119;-57
2023/10/14 09:21:20;;;;;;;10.32;2.38;;;10.10;99.90;;;;;;5094508;28;20040;-56
2023/10/14 09:23:48;;;;;;;8.60;1.80;;;10.10;99.90;;;;;;5094534;28;20044;-57
2023/10/14 09:26:17;;;;;;;13.05;2.70;;;10.20;99.90;;;;;;5094740;28;20040;-57
2023/10/14 09:28:44;;;;;;;9.77;2.20;;;10.20;99.90;;;;;;5094185;28;20123;-57
2023/10/14 09:31:12;;;;;;;11.30;2.22;;;10.30;99.90;;;;;;5094188;28;20360;-58
2023/10/14 09:33:41;;;;;;;12.18;2.45;;;10.30;99.90;;;;;;5094367;28;20077;-57
2023/10/14 09:36:22;;;;;;;12.00;2.47;;;10.40;99.90;;;;;;5093305;28;20139;-58
2023/10/14 09:38:48;;;;;;;9.10;1.95;;;10.50;99.90;;;;;;5094519;28;20071;-58
2023/10/14 09:41:15;;;;;;;9.30;2.00;;;10.60;99.90;;;;;;5094548;28;20039;-58
2023/10/14 09:43:48;;;;;;;12.27;1.90;;;10.60;99.90;;;;;;5092715;28;20085;-50
2023/10/14 09:46:20;;;;;;;11.57;1.95;;;10.70;99.90;;;;;;5094486;28;20036;-58
2023/10/14 09:48:47;;;;;;;7.05;1.73;;;10.80;99.90;;;;;;5093860;28;20097;-53
2023/10/14 09:51:14;;;;;;;11.32;2.00;;;10.80;99.90;;;;;;5092528;28;20108;-51
2023/10/14 09:53:40;;;;;;;10.20;2.22;;;10.90;99.90;;;;;;5093994;28;20177;-59
2023/10/14 09:56:07;;;;;;;7.50;2.33;;;10.90;99.90;;;;;;5092855;28;20032;-59
2023/10/14 09:58:34;;;;;;;11.95;2.30;;;11.00;99.90;;;;;;5093594;28;20036;-54
2023/10/14 10:01:01;;;;;;;9.00;2.25;;;11.00;99.90;;;;;;5093779;28;20043;-54
2023/10/14 10:03:28;;;;;;;9.13;2.03;;;11.10;99.90;;;;;;5093562;28;20534;-59
2023/10/14 10:05:55;;;;;;;11.25;2.33;;;11.20;99.90;;;;;;5093658;28;20044;-52
2023/10/14 10:08:22;;;;;;;11.15;2.17;;;11.30;99.90;;;;;;5093733;28;20062;-59
2023/10/14 10:10:49;;;;;;;10.13;1.88;;;11.30;99.90;;;;;;5093622;28;20094;-56
2023/10/14 10:13:17;;;;;;;11.18;2.17;;;11.40;99.90;;;;;;5093369;28;20054;-58
2023/10/14 10:15:44;;;;;;;12.23;2.13;;;11.40;99.90;;;;;;5093843;28;20036;-51
2023/10/14 10:18:16;;;;;;;10.27;2.40;;;11.50;99.90;;;;;;5093408;28;20442;-56
2023/10/14 10:20:45;;;;;;;10.80;2.28;;;11.50;99.90;;;;;;5093409;28;20040;-55
2023/10/14 10:23:14;;;;;;;13.48;2.95;;;11.60;99.90;;;;;;5092126;28;20068;-54
2023/10/14 10:25:47;;;;;;;13.32;2.50;;;11.60;99.90;;;;;;5092167;28;20044;-59
2023/10/14 10:28:14;;;;;;;9.13;1.73;;;11.80;99.90;;;;;;5093593;28;20044;-53
2023/10/14 10:30:41;;;;;;;11.73;2.60;;;11.90;99.90;;;;;;5093159;28;20043;-51
2023/10/14 10:33:08;;;;;;;11.20;2.58;;;12.00;99.90;;;;;;5093223;28;20395;-50
2023/10/14 10:35:34;;;;;;;9.63;2.05;;;12.00;99.90;;;;;;5093017;28;20040;-50
2023/10/14 10:38:01;;;;;;;8.63;2.13;;;12.10;99.90;;;;;;5093506;28;20044;-54
2023/10/14 10:40:28;;;;;;;9.80;2.60;;;12.20;99.90;;;;;;5093155;28;20047;-56
2023/10/14 10:42:55;;;;;;;9.93;1.83;;;12.30;99.90;;;;;;5093346;28;20047;-54
2023/10/14 10:45:22;;;;;;;7.20;1.92;;;12.30;99.90;;;;;;5091697;28;20482;-56
2023/10/14 10:47:51;;;;;;;8.80;2.30;;;12.30;99.90;;;;;;5093074;28;20058;-56
2023/10/14 10:50:18;;;;;;;12.15;2.42;;;12.30;99.90;;;;;;5093270;28;20059;-53
2023/10/14 10:52:46;;;;;;;9.00;1.75;;;12.30;99.90;;;;;;5092916;28;20123;-54
2023/10/14 10:55:14;;;;;;;10.15;2.42;;;12.40;99.90;;;;;;5093286;28;20044;-53
2023/10/14 10:57:41;;;;;;;7.43;1.73;;;12.40;99.90;;;;;;5092954;28;20040;-55
2023/10/14 11:00:11;;;;;;;7.57;1.73;;;12.40;99.90;;;;;;5091749;28;20047;-50
2023/10/14 11:02:39;;;;;;;6.57;2.00;;;12.50;99.90;;;;;;5093451;28;20123;-54
2023/10/14 11:05:06;;;;;;;12.35;2.30;;;12.60;99.90;;;;;;5093303;28;20101;-53
2023/10/14 11:07:33;;;;;;;6.40;1.73;;;12.60;99.90;;;;;;5092856;28;20044;-53
2023/10/14 11:10:00;;;;;;;7.72;1.65;;;12.60;99.90;;;;;;5093212;28;20121;-51
2023/10/14 11:12:27;;;;;;;8.02;2.08;;;12.70;99.90;;;;;;5093183;28;20040;-56
2023/10/14 11:14:54;;;;;;;9.40;2.67;;;12.70;99.90;;;;;;5092846;28;20041;-54
2023/10/14 11:17:20;;;;;;;8.85;1.70;;;12.90;99.90;;;;;;5092712;28;20032;-56
2023/10/14 11:19:49;;;;;;;7.80;2.10;;;12.80;99.90;;;;;;5093298;28;20044;-58
2023/10/14 11:22:16;;;;;;;11.52;2.25;;;12.80;99.90;;;;;;5093025;28;20047;-55
2023/10/14 11:24:43;;;;;;;9.35;1.95;;;12.80;99.90;;;;;;5092836;28;20487;-56
2023/10/14 11:27:09;;;;;;;10.77;2.67;;;12.70;99.90;;;;;;5091364;28;20044;-53
2023/10/14 11:29:36;;;;;;;8.95;1.55;;;12.50;99.90;;;;;;5093576;28;20070;-56
2023/10/14 11:32:03;;;;;;;7.30;1.70;;;12.40;99.90;;;;;;5093117;28;20044;-56
2023/10/14 11:34:30;;;;;;;5.25;1.33;;;12.30;99.90;;;;;;5097044;28;20145;-56
2023/10/14 11:36:57;;;;;;;9.05;1.92;;;12.40;99.90;;;;;;5095739;28;20067;-52
2023/10/14 11:39:24;;;;;;;10.90;2.10;;;12.50;99.90;;;;;;5096829;28;20414;-54
2023/10/14 11:41:51;;;;;;;6.22;1.58;;;12.60;99.90;;;;;;5096684;28;20115;-51
2023/10/14 11:44:18;;;;;;;7.75;1.65;;;12.70;99.90;;;;;;5096689;28;20064;-54
2023/10/14 11:46:45;;;;;;;6.70;1.65;;;12.80;99.90;;;;;;5095719;28;20530;-56
2023/10/14 11:49:12;;;;;;;8.77;1.50;;;12.90;99.90;;;;;;5096928;28;20044;-52
2023/10/14 11:51:39;;;;;;;6.90;1.70;;;13.00;99.90;;;;;;5096216;28;20052;-54
2023/10/14 11:54:06;;;;;;;6.25;1.77;;;13.10;99.90;;;;;;5096422;28;20043;-51
2023/10/14 11:56:33;;;;;;;6.55;1.60;;;13.20;99.90;;;;;;5096349;28;20032;-55
2023/10/14 11:59:04;;;;;;;9.07;1.73;;;13.40;99.90;;;;;;5096034;28;20036;-52
2023/10/14 12:01:34;;;;;;;8.77;1.65;;;13.40;99.90;;;;;;5094686;28;20044;-55
2023/10/14 12:04:01;;;;;;;5.88;1.50;;;13.50;99.90;;;;;;5095913;28;20171;-53
2023/10/14 12:06:30;;;;;;;5.13;1.52;;;13.50;99.90;;;;;;5096210;28;20044;-50
2023/10/14 12:08:57;;;;;;;8.68;2.15;;;13.60;99.90;;;;;;5095720;28;20083;-51
2023/10/14 12:11:24;;;;;;;6.65;2.00;;;13.50;99.90;;;;;;5096314;28;20463;-54
2023/10/14 12:13:51;;;;;;;4.05;1.33;;;13.30;99.90;;;;;;5096269;28;20048;-51
2023/10/14 12:16:18;;;;;;;7.32;1.70;;;13.10;99.90;;;;;;5095984;28;20036;-54
2023/10/14 12:18:45;;;;;;;5.07;1.13;;;12.90;99.90;;;;;;5095728;28;20040;-52
2023/10/14 12:21:13;;;;;;;7.32;1.38;;;12.70;99.90;;;;;;5095763;28;20067;-53
2023/10/14 12:23:40;;;;;;;8.07;1.38;;;12.50;99.90;;;;;;5095877;28;20433;-57
2023/10/14 12:26:13;;;;;;;5.57;1.48;;;12.50;99.90;;;;;;5096183;28;20036;-56
2023/10/14 12:29:07;;;;;;;5.93;1.30;;;12.60;99.90;;;;;;5095495;28;20040;-54
2023/10/14 12:31:38;;;;;;;5.18;1.20;;;12.60;99.90;;;;;;5094579;28;20064;-53
2023/10/14 12:34:08;;;;;;;5.63;1.23;;;12.60;99.90;;;;;;5094107;28;20044;-52
2023/10/14 12:36:40;;;;;;;4.88;1.60;;;12.80;99.90;;;;;;5095318;28;20493;-52
2023/10/14 12:39:33;;;;;;;6.13;1.60;;;13.10;99.90;;;;;;5095734;28;20109;-54
2023/10/14 12:42:02;;;;;;;6.18;1.55;;;13.30;99.90;;;;;;5095060;28;20442;-52
2023/10/14 12:44:29;;;;;;;4.95;1.48;;;13.50;99.90;;;;;;5095022;28;20052;-55
2023/10/14 12:46:56;;;;;;;6.22;1.60;;;13.60;99.90;;;;;;5094851;28;20048;-53
2023/10/14 12:49:23;;;;;;;6.63;1.65;;;13.70;99.90;;;;;;5095576;28;20063;-52
2023/10/14 12:51:56;;;;;;;6.75;1.60;;;13.40;99.90;;;;;;5094855;28;20056;-55
2023/10/14 12:54:29;;;;;;;6.13;1.48;;;12.30;99.90;;;;;;5095370;28;20473;-55
2023/10/14 12:56:56;;;;;;;3.22;1.30;;;11.60;99.90;;;;;;5094071;28;20372;-53
2023/10/14 12:59:24;;;;;;;6.07;1.75;;;11.20;99.90;;;;;;5093556;28;20040;-53
2023/10/14 13:01:58;;;;;;;5.65;1.58;;;11.10;99.90;;;;;;5094081;28;20465;-50
2023/10/14 13:04:27;;;;;;;7.28;1.58;;;11.10;99.90;;;;;;5095776;28;20048;-55
2023/10/14 13:06:54;;;;;;;8.63;1.73;;;11.00;99.90;;;;;;5093779;28;20123;-55
2023/10/14 13:09:26;;;;;;;5.95;1.55;;;11.00;99.90;;;;;;5094477;28;20040;-54
2023/10/14 13:11:57;;;;;;;4.53;1.30;;;10.90;99.90;;;;;;5095161;28;20036;-52
2023/10/14 13:14:27;;;;;;;4.63;1.27;;;10.90;99.90;;;;;;5094575;28;20036;-54
2023/10/14 13:16:58;;;;;;;5.25;1.40;;;10.90;99.90;;;;;;5094912;28;20452;-58